sensor_id;sensor_type;location;lat;lon;timestamp;pressure;altitude;pressure_sealevel;temperature;humidity
26043;BME280;13818;52.156;5.382;2024-02-26T00:00:12;99749.97;;;5.87;100.00
26043;BME280;13818;52.156;5.382;2024-02-26T00:02:39;99759.56;;;5.90;100.00
26043;BME280;13818;52.156;5.382;2024-02-26T00:05:07;99761.47;;;5.86;100.00
26043;BME280;13818;52.156;5.382;2024-02-26T00:07:34;99755.75;;;5.76;100.00
26043;BME280;13818;52.156;5.382;2024-02-26T00:10:00;99762.44;;;5.85;100.00
26043;BME280;13818;52.156;5.382;2024-02-26T00:12:27;99760.06;;;5.79;100.00
26043;BME280;13818;52.156;5.382;2024-02-26T00:14:53;99753.88;;;5.78;100.00
26043;BME280;13818;52.156;5.382;2024-02-26T00:17:23;99760.16;;;5.76;100.00
26043;BME280;13818;52.156;5.382;2024-02-26T00:19:49;99758.41;;;5.76;100.00
26043;BME280;13818;52.156;5.382;2024-02-26T00:22:16;99768.66;;;5.84;100.00
26043;BME280;13818;52.156;5.382;2024-02-26T00:24:42;99768.56;;;5.85;100.00
26043;BME280;13818;52.156;5.382;2024-02-26T00:27:09;99769.91;;;5.75;100.00
26043;BME280;13818;52.156;5.382;2024-02-26T00:29:35;99777.56;;;5.81;100.00
26043;BME280;13818;52.156;5.382;2024-02-26T00:32:02;99774.84;;;5.83;100.00
26043;BME280;13818;52.156;5.382;2024-02-26T00:34:30;99770.16;;;5.69;100.00
26043;BME280;13818;52.156;5.382;2024-02-26T00:36:57;99766.59;;;5.70;100.00
26043;BME280;13818;52.156;5.382;2024-02-26T00:39:23;99767.72;;;5.64;100.00
26043;BME280;13818;52.156;5.382;2024-02-26T00:41:50;99769.56;;;5.62;100.00
26043;BME280;13818;52.156;5.382;2024-02-26T00:44:17;99770.34;;;5.64;100.00
26043;BME280;13818;52.156;5.382;2024-02-26T00:46:44;99781.06;;;5.61;100.00
26043;BME280;13818;52.156;5.382;2024-02-26T00:49:11;99772.88;;;5.67;100.00
26043;BME280;13818;52.156;5.382;2024-02-26T00:51:39;99783.25;;;5.72;100.00
26043;BME280;13818;52.156;5.382;2024-02-26T00:54:05;99781.59;;;5.69;100.00
26043;BME280;13818;52.156;5.382;2024-02-26T00:56:31;99772.88;;;5.67;100.00
26043;BME280;13818;52.156;5.382;2024-02-26T00:58:58;99773.81;;;5.66;100.00
26043;BME280;13818;52.156;5.382;2024-02-26T01:01:25;99771.81;;;5.72;100.00
26043;BME280;13818;52.156;5.382;2024-02-26T01:03:51;99770.34;;;5.64;100.00
26043;BME280;13818;52.156;5.382;2024-02-26T01:06:18;99774.78;;;5.64;100.00
26043;BME280;13818;52.156;5.382;2024-02-26T01:08:46;99777.56;;;5.61;100.00
26043;BME280;13818;52.156;5.382;2024-02-26T01:11:12;99779.28;;;5.62;100.00
26043;BME280;13818;52.156;5.382;2024-02-26T01:13:38;99775.72;;;5.63;100.00
26043;BME280;13818;52.156;5.382;2024-02-26T01:16:05;99776.13;;;5.53;100.00
26043;BME280;13818;52.156;5.382;2024-02-26T01:18:32;99782.50;;;5.48;100.00
26043;BME280;13818;52.156;5.382;2024-02-26T01:20:58;99763.25;;;5.44;100.00
26043;BME280;13818;52.156;5.382;2024-02-26T01:23:25;99772.13;;;5.43;100.00
26043;BME280;13818;52.156;5.382;2024-02-26T01:25:53;99764.91;;;5.47;100.00
26043;BME280;13818;52.156;5.382;2024-02-26T01:28:19;99772.00;;;5.46;100.00
26043;BME280;13818;52.156;5.382;2024-02-26T01:30:45;99767.50;;;5.48;100.00
26043;BME280;13818;52.156;5.382;2024-02-26T01:33:13;99766.84;;;5.43;100.00
26043;BME280;13818;52.156;5.382;2024-02-26T01:35:39;99767.16;;;5.35;100.00
26043;BME280;13818;52.156;5.382;2024-02-26T01:38:06;99764.41;;;5.38;100.00
26043;BME280;13818;52.156;5.382;2024-02-26T01:40:32;99763.25;;;5.44;100.00
26043;BME280;13818;52.156;5.382;2024-02-26T01:43:01;99766.16;;;5.38;100.00
26043;BME280;13818;52.156;5.382;2024-02-26T01:45:28;99762.69;;;5.37;100.00
26043;BME280;13818;52.156;5.382;2024-02-26T01:47:55;99763.91;;;5.29;100.00
26043;BME280;13818;52.156;5.382;2024-02-26T01:50:22;99763.84;;;5.30;100.00
26043;BME280;13818;52.156;5.382;2024-02-26T01:52:50;99766.50;;;5.30;100.00
26043;BME280;13818;52.156;5.382;2024-02-26T01:55:17;99768.22;;;5.31;100.00
26043;BME280;13818;52.156;5.382;2024-02-26T01:57:45;99769.94;;;5.32;100.00
26043;BME280;13818;52.156;5.382;2024-02-26T02:00:14;99771.78;;;5.30;100.00
26043;BME280;13818;52.156;5.382;2024-02-26T02:02:41;99774.34;;;5.32;100.00
26043;BME280;13818;52.156;5.382;2024-02-26T02:05:11;99777.06;;;5.30;100.00
26043;BME280;13818;52.156;5.382;2024-02-26T02:07:38;99777.31;;;5.24;100.00
26043;BME280;13818;52.156;5.382;2024-02-26T02:10:05;99779.94;;;5.24;100.00
26043;BME280;13818;52.156;5.382;2024-02-26T02:12:33;99781.56;;;5.28;100.00
26043;BME280;13818;52.156;5.382;2024-02-26T02:15:01;99787.56;;;5.32;100.00
26043;BME280;13818;52.156;5.382;2024-02-26T02:17:31;99786.56;;;5.34;100.00
26043;BME280;13818;52.156;5.382;2024-02-26T02:19:57;99787.44;;;5.35;100.00
26043;BME280;13818;52.156;5.382;2024-02-26T02:22:25;99784.72;;;5.36;100.00
26043;BME280;13818;52.156;5.382;2024-02-26T02:24:52;99790.94;;;5.35;100.00
26043;BME280;13818;52.156;5.382;2024-02-26T02:27:21;99799.59;;;5.39;100.00
26043;BME280;13818;52.156;5.382;2024-02-26T02:29:47;99790.88;;;5.37;100.00
26043;BME280;13818;52.156;5.382;2024-02-26T02:32:17;99801.41;;;5.38;100.00
26043;BME280;13818;52.156;5.382;2024-02-26T02:34:43;99788.19;;;5.38;100.00
26043;BME280;13818;52.156;5.382;2024-02-26T02:37:10;99806.06;;;5.32;100.00
26043;BME280;13818;52.156;5.382;2024-02-26T02:39:38;99790.16;;;5.33;100.00
26043;BME280;13818;52.156;5.382;2024-02-26T02:42:05;99793.81;;;5.29;100.00
26043;BME280;13818;52.156;5.382;2024-02-26T02:44:31;99805.44;;;5.25;100.00
26043;BME280;13818;52.156;5.382;2024-02-26T02:46:58;99810.81;;;5.24;100.00
26043;BME280;13818;52.156;5.382;2024-02-26T02:49:24;99805.69;;;5.19;100.00
26043;BME280;13818;52.156;5.382;2024-02-26T02:51:51;99814.22;;;5.26;100.00
26043;BME280;13818;52.156;5.382;2024-02-26T02:54:18;99812.53;;;5.25;100.00
26043;BME280;13818;52.156;5.382;2024-02-26T02:56:46;99813.97;;;5.32;100.00
26043;BME280;13818;52.156;5.382;2024-02-26T02:59:13;99819.81;;;5.18;100.00
26043;BME280;13818;52.156;5.382;2024-02-26T03:01:40;99821.47;;;5.20;100.00
26043;BME280;13818;52.156;5.382;2024-02-26T03:04:07;99823.88;;;5.27;100.00
26043;BME280;13818;52.156;5.382;2024-02-26T03:06:33;99838.94;;;5.25;100.00
26043;BME280;13818;52.156;5.382;2024-02-26T03:08:59;99838.94;;;5.25;100.00
26043;BME280;13818;52.156;5.382;2024-02-26T03:11:26;99840.47;;;5.30;100.00
26043;BME280;13818;52.156;5.382;2024-02-26T03:13:54;99838.63;;;5.32;100.00
26043;BME280;13818;52.156;5.382;2024-02-26T03:16:20;99847.47;;;5.31;100.00
26043;BME280;13818;52.156;5.382;2024-02-26T03:18:47;99850.25;;;5.28;100.00
26043;BME280;13818;52.156;5.382;2024-02-26T03:21:13;99844.22;;;5.25;100.00
26043;BME280;13818;52.156;5.382;2024-02-26T03:23:40;99852.44;;;5.17;100.00
26043;BME280;13818;52.156;5.382;2024-02-26T03:26:06;99853.19;;;5.20;100.00
26043;BME280;13818;52.156;5.382;2024-02-26T03:28:34;99869.16;;;5.17;100.00
26043;BME280;13818;52.156;5.382;2024-02-26T03:31:02;99860.38;;;5.17;100.00
26043;BME280;13818;52.156;5.382;2024-02-26T03:33:29;99863.75;;;5.20;100.00
26043;BME280;13818;52.156;5.382;2024-02-26T03:35:55;99880.97;;;5.31;100.00
26043;BME280;13818;52.156;5.382;2024-02-26T03:38:20;99877.41;;;5.32;100.00
26043;BME280;13818;52.156;5.382;2024-02-26T03:40:47;99878.34;;;5.31;100.00
26043;BME280;13818;52.156;5.382;2024-02-26T03:43:13;99869.44;;;5.33;100.00
26043;BME280;13818;52.156;5.382;2024-02-26T03:45:40;99881.69;;;5.34;100.00
26043;BME280;13818;52.156;5.382;2024-02-26T03:48:08;99888.09;;;5.29;100.00
26043;BME280;13818;52.156;5.382;2024-02-26T03:50:35;99878.50;;;5.26;100.00
26043;BME280;13818;52.156;5.382;2024-02-26T03:53:01;99884.84;;;5.22;100.00
26043;BME280;13818;52.156;5.382;2024-02-26T03:55:28;99876.78;;;5.25;100.00
26043;BME280;13818;52.156;5.382;2024-02-26T03:57:55;99889.00;;;5.28;100.00
26043;BME280;13818;52.156;5.382;2024-02-26T04:00:23;99888.03;;;5.30;100.00
26043;BME280;13818;52.156;5.382;2024-02-26T04:02:50;99874.75;;;5.32;100.00
26043;BME280;13818;52.156;5.382;2024-02-26T04:05:18;99879.44;;;5.25;100.00
26043;BME280;13818;52.156;5.382;2024-02-26T04:07:45;99877.84;;;5.21;100.00
26043;BME280;13818;52.156;5.382;2024-02-26T04:10:12;99873.84;;;5.33;100.00
26043;BME280;13818;52.156;5.382;2024-02-26T04:12:40;99886.28;;;5.31;100.00
26043;BME280;13818;52.156;5.382;2024-02-26T04:15:07;99889.00;;;5.28;100.00
26043;BME280;13818;52.156;5.382;2024-02-26T04:17:34;99882.69;;;5.32;100.00
26043;BME280;13818;52.156;5.382;2024-02-26T04:20:01;99894.44;;;5.25;100.00
26043;BME280;13818;52.156;5.382;2024-02-26T04:22:29;99896.56;;;5.37;100.00
26043;BME280;13818;52.156;5.382;2024-02-26T04:24:55;99899.28;;;5.35;100.00
26043;BME280;13818;52.156;5.382;2024-02-26T04:27:22;99895.63;;;5.40;100.00
26043;BME280;13818;52.156;5.382;2024-02-26T04:29:48;99895.03;;;5.31;100.00
26043;BME280;13818;52.156;5.382;2024-02-26T04:32:15;99902.13;;;5.31;100.00
26043;BME280;13818;52.156;5.382;2024-02-26T04:34:41;99898.44;;;5.35;100.00
26043;BME280;13818;52.156;5.382;2024-02-26T04:37:08;99910.91;;;5.31;100.00
26043;BME280;13818;52.156;5.382;2024-02-26T04:39:36;99913.41;;;5.34;100.00
26043;BME280;13818;52.156;5.382;2024-02-26T04:42:03;99908.13;;;5.34;100.00
26043;BME280;13818;52.156;5.382;2024-02-26T04:44:29;99919.56;;;5.35;100.00
26043;BME280;13818;52.156;5.382;2024-02-26T04:46:56;99901.00;;;5.36;100.00
26043;BME280;13818;52.156;5.382;2024-02-26T04:49:22;99908.13;;;5.34;100.00
26043;BME280;13818;52.156;5.382;2024-02-26T04:51:49;99908.25;;;5.31;100.00
26043;BME280;13818;52.156;5.382;2024-02-26T04:54:15;99906.66;;;5.27;100.00
26043;BME280;13818;52.156;5.382;2024-02-26T04:56:43;99923.38;;;5.28;100.00
26043;BME280;13818;52.156;5.382;2024-02-26T04:59:10;99917.84;;;5.34;100.00
26043;BME280;13818;52.156;5.382;2024-02-26T05:01:36;99930.53;;;5.24;100.00
26043;BME280;13818;52.156;5.382;2024-02-26T05:04:03;99926.88;;;5.28;100.00
26043;BME280;13818;52.156;5.382;2024-02-26T05:06:29;99929.31;;;5.33;100.00
26043;BME280;13818;52.156;5.382;2024-02-26T05:08:56;99929.41;;;5.31;100.00
26043;BME280;13818;52.156;5.382;2024-02-26T05:11:22;99927.59;;;5.32;100.00
26043;BME280;13818;52.156;5.382;2024-02-26T05:13:50;99935.97;;;5.21;100.00
26043;BME280;13818;52.156;5.382;2024-02-26T05:16:17;99950.75;;;5.25;100.00
26043;BME280;13818;52.156;5.382;2024-02-26T05:18:45;99940.13;;;5.27;100.00
26043;BME280;13818;52.156;5.382;2024-02-26T05:21:12;99937.63;;;5.24;100.00
26043;BME280;13818;52.156;5.382;2024-02-26T05:23:38;99941.94;;;5.26;100.00
26043;BME280;13818;52.156;5.382;2024-02-26T05:26:05;99948.34;;;5.19;100.00
26043;BME280;13818;52.156;5.382;2024-02-26T05:28:31;99947.44;;;5.20;100.00
26043;BME280;13818;52.156;5.382;2024-02-26T05:30:59;99950.16;;;5.18;100.00
26043;BME280;13818;52.156;5.382;2024-02-26T05:33:25;99944.81;;;5.20;100.00
26043;BME280;13818;52.156;5.382;2024-02-26T05:35:52;99964.78;;;5.27;100.00
26043;BME280;13818;52.156;5.382;2024-02-26T05:38:19;99964.09;;;5.22;100.00
26043;BME280;13818;52.156;5.382;2024-02-26T05:40:46;99951.88;;;5.19;100.00
26043;BME280;13818;52.156;5.382;2024-02-26T05:43:12;99954.31;;;5.24;100.00
26043;BME280;13818;52.156;5.382;2024-02-26T05:45:40;99959.72;;;5.21;100.00
26043;BME280;13818;52.156;5.382;2024-02-26T05:48:08;99963.34;;;5.18;100.00
26043;BME280;13818;52.156;5.382;2024-02-26T05:50:35;99980.50;;;5.30;100.00
26043;BME280;13818;52.156;5.382;2024-02-26T05:53:02;99978.69;;;5.32;100.00
26043;BME280;13818;52.156;5.382;2024-02-26T05:55:29;99960.25;;;5.31;100.00
26043;BME280;13818;52.156;5.382;2024-02-26T05:57:55;99985.13;;;5.25;100.00
26043;BME280;13818;52.156;5.382;2024-02-26T06:00:23;99985.03;;;5.27;100.00
26043;BME280;13818;52.156;5.382;2024-02-26T06:02:49;99986.03;;;5.24;100.00
26043;BME280;13818;52.156;5.382;2024-02-26T06:05:17;99998.94;;;5.32;100.00
26043;BME280;13818;52.156;5.382;2024-02-26T06:07:43;99990.56;;;5.20;100.00
26043;BME280;13818;52.156;5.382;2024-02-26T06:10:10;99992.19;;;5.25;100.00
26043;BME280;13818;52.156;5.382;2024-02-26T06:12:38;99980.06;;;5.19;100.00
26043;BME280;13818;52.156;5.382;2024-02-26T06:15:05;99986.94;;;5.23;100.00
26043;BME280;13818;52.156;5.382;2024-02-26T06:17:34;99995.09;;;5.17;100.00
26043;BME280;13818;52.156;5.382;2024-02-26T06:20:01;99998.63;;;5.17;100.00
26043;BME280;13818;52.156;5.382;2024-02-26T06:22:31;100004.59;;;5.22;100.00
26043;BME280;13818;52.156;5.382;2024-02-26T06:24:58;100002.28;;;5.13;100.00
26043;BME280;13818;52.156;5.382;2024-02-26T06:27:24;100019.53;;;5.24;100.00
26043;BME280;13818;52.156;5.382;2024-02-26T06:29:51;100024.59;;;5.30;100.00
26043;BME280;13818;52.156;5.382;2024-02-26T06:32:17;100027.28;;;5.28;100.00
26043;BME280;13818;52.156;5.382;2024-02-26T06:34:44;100009.34;;;5.36;100.00
26043;BME280;13818;52.156;5.382;2024-02-26T06:37:10;100034.69;;;5.42;100.00
26043;BME280;13818;52.156;5.382;2024-02-26T06:39:38;100022.47;;;5.40;100.00
26043;BME280;13818;52.156;5.382;2024-02-26T06:42:06;100020.84;;;5.35;100.00
26043;BME280;13818;52.156;5.382;2024-02-26T06:44:33;100023.31;;;5.40;100.00
26043;BME280;13818;52.156;5.382;2024-02-26T06:46:59;100027.63;;;5.43;100.00
26043;BME280;13818;52.156;5.382;2024-02-26T06:49:26;100029.50;;;5.39;100.00
26043;BME280;13818;52.156;5.382;2024-02-26T06:51:52;100032.44;;;5.31;100.00
26043;BME280;13818;52.156;5.382;2024-02-26T06:54:19;100037.50;;;5.37;100.00
26043;BME280;13818;52.156;5.382;2024-02-26T06:56:47;100038.19;;;5.43;100.00
26043;BME280;13818;52.156;5.382;2024-02-26T06:59:13;100061.00;;;5.45;100.00
26043;BME280;13818;52.156;5.382;2024-02-26T07:01:40;100064.50;;;5.46;100.00
26043;BME280;13818;52.156;5.382;2024-02-26T07:04:07;100048.31;;;5.55;100.00
26043;BME280;13818;52.156;5.382;2024-02-26T07:06:34;100056.09;;;5.58;100.00
26043;BME280;13818;52.156;5.382;2024-02-26T07:09:01;100053.88;;;5.47;100.00
26043;BME280;13818;52.156;5.382;2024-02-26T07:11:28;100065.53;;;5.42;100.00
26043;BME280;13818;52.156;5.382;2024-02-26T07:13:56;100061.44;;;5.33;100.00
26043;BME280;13818;52.156;5.382;2024-02-26T07:16:22;100062.59;;;5.26;100.00
26043;BME280;13818;52.156;5.382;2024-02-26T07:18:49;100068.75;;;5.26;100.00
26043;BME280;13818;52.156;5.382;2024-02-26T07:21:15;100069.31;;;5.11;100.00
26043;BME280;13818;52.156;5.382;2024-02-26T07:23:42;100077.75;;;5.20;100.00
26043;BME280;13818;52.156;5.382;2024-02-26T07:26:08;100080.28;;;5.24;100.00
26043;BME280;13818;52.156;5.382;2024-02-26T07:28:37;100076.97;;;5.18;100.00
26043;BME280;13818;52.156;5.382;2024-02-26T07:31:04;100084.75;;;5.21;100.00
26043;BME280;13818;52.156;5.382;2024-02-26T07:33:31;100081.28;;;5.21;100.00
26043;BME280;13818;52.156;5.382;2024-02-26T07:35:57;100096.94;;;5.26;100.00
26043;BME280;13818;52.156;5.382;2024-02-26T07:38:24;100092.47;;;5.28;100.00
26043;BME280;13818;52.156;5.382;2024-02-26T07:40:50;100075.41;;;5.36;100.00
26043;BME280;13818;52.156;5.382;2024-02-26T07:43:17;100094.03;;;5.33;100.00
26043;BME280;13818;52.156;5.382;2024-02-26T07:45:43;100090.28;;;5.39;100.00
26043;BME280;13818;52.156;5.382;2024-02-26T07:48:11;100087.31;;;5.25;100.00
26043;BME280;13818;52.156;5.382;2024-02-26T07:50:39;100092.38;;;5.31;100.00
26043;BME280;13818;52.156;5.382;2024-02-26T07:53:06;100096.00;;;5.28;100.00
26043;BME280;13818;52.156;5.382;2024-02-26T07:55:32;100123.63;;;5.18;100.00
26043;BME280;13818;52.156;5.382;2024-02-26T07:57:59;100120.47;;;5.33;100.00
26043;BME280;13818;52.156;5.382;2024-02-26T08:00:26;100127.63;;;5.30;100.00
26043;BME280;13818;52.156;5.382;2024-02-26T08:02:53;100127.06;;;5.45;100.00
26043;BME280;13818;52.156;5.382;2024-02-26T08:05:20;100129.09;;;5.38;100.00
26043;BME280;13818;52.156;5.382;2024-02-26T08:07:47;100127.41;;;5.36;100.00
26043;BME280;13818;52.156;5.382;2024-02-26T08:10:14;100136.09;;;5.40;100.00
26043;BME280;13818;52.156;5.382;2024-02-26T08:12:41;100131.81;;;5.35;100.00
26043;BME280;13818;52.156;5.382;2024-02-26T08:15:08;100145.31;;;5.28;100.00
26043;BME280;13818;52.156;5.382;2024-02-26T08:17:35;100142.56;;;5.31;100.00
26043;BME280;13818;52.156;5.382;2024-02-26T08:20:02;100138.28;;;5.28;100.00
26043;BME280;13818;52.156;5.382;2024-02-26T08:22:30;100146.88;;;5.33;100.00
26043;BME280;13818;52.156;5.382;2024-02-26T08:24:58;100166.09;;;5.38;100.00
26043;BME280;13818;52.156;5.382;2024-02-26T08:27:24;100162.28;;;5.46;100.00
26043;BME280;13818;52.156;5.382;2024-02-26T08:29:51;100150.22;;;5.38;100.00
26043;BME280;13818;52.156;5.382;2024-02-26T08:32:17;100153.72;;;5.39;100.00
26043;BME280;13818;52.156;5.382;2024-02-26T08:34:44;100159.75;;;5.43;100.00
26043;BME280;13818;52.156;5.382;2024-02-26T08:37:11;100160.09;;;5.33;100.00
26043;BME280;13818;52.156;5.382;2024-02-26T08:39:39;100161.94;;;5.31;100.00
26043;BME280;13818;52.156;5.382;2024-02-26T08:42:05;100160.63;;;5.43;100.00
26043;BME280;13818;52.156;5.382;2024-02-26T08:44:32;100175.50;;;5.46;100.00
26043;BME280;13818;52.156;5.382;2024-02-26T08:46:59;100178.63;;;5.57;100.00
26043;BME280;13818;52.156;5.382;2024-02-26T08:49:26;100170.88;;;5.52;100.00
26043;BME280;13818;52.156;5.382;2024-02-26T08:51:52;100183.69;;;5.38;100.00
26043;BME280;13818;52.156;5.382;2024-02-26T08:54:19;100188.84;;;5.43;100.00
26043;BME280;13818;52.156;5.382;2024-02-26T08:56:48;100196.63;;;5.47;100.00
26043;BME280;13818;52.156;5.382;2024-02-26T08:59:14;100190.84;;;5.61;100.00
26043;BME280;13818;52.156;5.382;2024-02-26T09:01:41;100225.69;;;5.47;100.00
26043;BME280;13818;52.156;5.382;2024-02-26T09:04:08;100198.16;;;5.53;100.00
26043;BME280;13818;52.156;5.382;2024-02-26T09:06:34;100213.88;;;5.58;100.00
26043;BME280;13818;52.156;5.382;2024-02-26T09:09:01;100206.09;;;5.53;100.00
26043;BME280;13818;52.156;5.382;2024-02-26T09:11:29;100221.78;;;5.32;100.00
26043;BME280;13818;52.156;5.382;2024-02-26T09:13:57;100196.81;;;5.41;100.00
26043;BME280;13818;52.156;5.382;2024-02-26T09:16:24;100220.00;;;5.33;100.00
26043;BME280;13818;52.156;5.382;2024-02-26T09:18:50;100225.28;;;5.33;100.00
26043;BME280;13818;52.156;5.382;2024-02-26T09:21:17;100222.59;;;5.34;100.00
26043;BME280;13818;52.156;5.382;2024-02-26T09:23:48;100240.09;;;5.38;100.00
26043;BME280;13818;52.156;5.382;2024-02-26T09:26:14;100229.31;;;5.45;100.00
26043;BME280;13818;52.156;5.382;2024-02-26T09:28:41;100235.44;;;5.45;100.00
26043;BME280;13818;52.156;5.382;2024-02-26T09:31:10;100227.94;;;5.58;100.00
26043;BME280;13818;52.156;5.382;2024-02-26T09:33:37;100223.34;;;5.63;100.00
26043;BME280;13818;52.156;5.382;2024-02-26T09:36:04;100233.78;;;5.43;100.00
26043;BME280;13818;52.156;5.382;2024-02-26T09:38:30;100233.66;;;5.46;100.00
26043;BME280;13818;52.156;5.382;2024-02-26T09:40:56;100249.22;;;5.55;100.00
26043;BME280;13818;52.156;5.382;2024-02-26T09:43:23;100253.13;;;5.43;100.00
26043;BME280;13818;52.156;5.382;2024-02-26T09:45:53;100245.94;;;5.47;100.00
26043;BME280;13818;52.156;5.382;2024-02-26T09:48:22;100260.56;;;5.57;100.00
26043;BME280;13818;52.156;5.382;2024-02-26T09:50:50;100257.50;;;5.44;100.00
26043;BME280;13818;52.156;5.382;2024-02-26T09:53:16;100259.75;;;5.30;100.00
26043;BME280;13818;52.156;5.382;2024-02-26T09:55:44;100243.56;;;5.39;100.00
26043;BME280;13818;52.156;5.382;2024-02-26T09:58:11;100250.38;;;5.46;100.00
26043;BME280;13818;52.156;5.382;2024-02-26T10:00:47;100286.44;;;5.49;100.00
26043;BME280;13818;52.156;5.382;2024-02-26T10:03:16;100268.28;;;5.38;100.00
26043;BME280;13818;52.156;5.382;2024-02-26T10:05:49;100282.91;;;5.48;100.00
26043;BME280;13818;52.156;5.382;2024-02-26T10:08:18;100279.59;;;5.42;100.00
26043;BME280;13818;52.156;5.382;2024-02-26T10:10:47;100284.09;;;5.40;100.00
26043;BME280;13818;52.156;5.382;2024-02-26T10:13:14;100276.41;;;5.59;100.00
26043;BME280;13818;52.156;5.382;2024-02-26T10:15:40;100284.47;;;5.54;100.00
26043;BME280;13818;52.156;5.382;2024-02-26T10:18:07;100290.38;;;5.62;100.00
26043;BME280;13818;52.156;5.382;2024-02-26T10:20:34;100284.13;;;5.65;100.00
26043;BME280;13818;52.156;5.382;2024-02-26T10:23:04;100293.81;;;5.64;100.00
26043;BME280;13818;52.156;5.382;2024-02-26T10:25:30;100289.50;;;5.62;100.00
26043;BME280;13818;52.156;5.382;2024-02-26T10:27:59;100299.59;;;5.50;100.00
26043;BME280;13818;52.156;5.382;2024-02-26T10:30:27;100322.72;;;5.44;100.00
26043;BME280;13818;52.156;5.382;2024-02-26T10:32:54;100301.97;;;5.58;100.00
26043;BME280;13818;52.156;5.382;2024-02-26T10:35:20;100306.25;;;5.62;100.00
26043;BME280;13818;52.156;5.382;2024-02-26T10:37:48;100327.13;;;5.43;100.00
26043;BME280;13818;52.156;5.382;2024-02-26T10:40:16;100310.81;;;5.57;100.00
26043;BME280;13818;52.156;5.382;2024-02-26T10:42:43;100329.16;;;5.62;100.00
26043;BME280;13818;52.156;5.382;2024-02-26T10:45:12;100331.09;;;5.57;100.00
26043;BME280;13818;52.156;5.382;2024-02-26T10:47:40;100330.97;;;5.60;100.00
26043;BME280;13818;52.156;5.382;2024-02-26T10:50:07;100332.44;;;5.70;100.00
26043;BME280;13818;52.156;5.382;2024-02-26T10:52:35;100346.34;;;5.75;100.00
26043;BME280;13818;52.156;5.382;2024-02-26T10:55:03;100359.88;;;5.66;100.00
26043;BME280;13818;52.156;5.382;2024-02-26T10:57:39;100346.16;;;5.81;100.00
26043;BME280;13818;52.156;5.382;2024-02-26T11:00:07;100345.25;;;5.81;100.00
26043;BME280;13818;52.156;5.382;2024-02-26T11:02:38;100375.38;;;5.77;100.00
26043;BME280;13818;52.156;5.382;2024-02-26T11:05:07;100369.94;;;5.81;100.00
26043;BME280;13818;52.156;5.382;2024-02-26T11:07:34;100355.53;;;5.63;100.00
26043;BME280;13818;52.156;5.382;2024-02-26T11:10:03;100393.03;;;5.76;100.00
26043;BME280;13818;52.156;5.382;2024-02-26T11:12:32;100371.72;;;5.81;100.00
26043;BME280;13818;52.156;5.382;2024-02-26T11:15:08;100368.91;;;5.85;100.00
26043;BME280;13818;52.156;5.382;2024-02-26T11:17:35;100372.16;;;5.94;100.00
26043;BME280;13818;52.156;5.382;2024-02-26T11:20:04;100389.16;;;5.86;100.00
26043;BME280;13818;52.156;5.382;2024-02-26T11:22:31;100386.78;;;5.79;100.00
26043;BME280;13818;52.156;5.382;2024-02-26T11:24:58;100401.88;;;5.75;100.00
26043;BME280;13818;52.156;5.382;2024-02-26T11:27:28;100383.63;;;5.67;100.00
26043;BME280;13818;52.156;5.382;2024-02-26T11:30:00;100391.03;;;5.83;100.00
26043;BME280;13818;52.156;5.382;2024-02-26T11:32:27;100396.34;;;5.83;100.00
26043;BME280;13818;52.156;5.382;2024-02-26T11:34:55;100396.59;;;5.75;100.00
26043;BME280;13818;52.156;5.382;2024-02-26T11:37:22;100391.19;;;5.78;100.00
26043;BME280;13818;52.156;5.382;2024-02-26T11:39:51;100389.88;;;5.92;100.00
26043;BME280;13818;52.156;5.382;2024-02-26T11:42:22;100395.22;;;5.90;100.00
26043;BME280;13818;52.156;5.382;2024-02-26T11:44:49;100399.81;;;5.85;100.00
26043;BME280;13818;52.156;5.382;2024-02-26T11:47:20;100400.25;;;5.71;100.00
26043;BME280;13818;52.156;5.382;2024-02-26T11:49:47;100414.19;;;5.76;100.00
26043;BME280;13818;52.156;5.382;2024-02-26T11:52:15;100413.06;;;5.83;100.00
26043;BME280;13818;52.156;5.382;2024-02-26T11:54:46;100417.50;;;5.83;100.00
26043;BME280;13818;52.156;5.382;2024-02-26T11:57:23;100436.47;;;5.96;100.00
26043;BME280;13818;52.156;5.382;2024-02-26T11:59:49;100452.44;;;5.93;100.00
26043;BME280;13818;52.156;5.382;2024-02-26T12:02:41;100417.13;;;5.94;100.00
26043;BME280;13818;52.156;5.382;2024-02-26T12:05:10;100436.03;;;6.10;100.00
26043;BME280;13818;52.156;5.382;2024-02-26T12:07:40;100431.66;;;6.09;100.00
26043;BME280;13818;52.156;5.382;2024-02-26T12:10:13;100446.88;;;6.02;100.00
26043;BME280;13818;52.156;5.382;2024-02-26T12:12:41;100438.09;;;6.01;100.00
26043;BME280;13818;52.156;5.382;2024-02-26T12:15:08;100438.09;;;6.00;100.00
26043;BME280;13818;52.156;5.382;2024-02-26T12:17:36;100443.91;;;6.11;100.00
26043;BME280;13818;52.156;5.382;2024-02-26T12:20:11;100448.03;;;6.20;100.00
26043;BME280;13818;52.156;5.382;2024-02-26T12:22:39;100442.31;;;6.32;100.00
26043;BME280;13818;52.156;5.382;2024-02-26T12:25:08;100453.72;;;6.34;100.00
26043;BME280;13818;52.156;5.382;2024-02-26T12:27:35;100442.69;;;6.22;100.00
26043;BME280;13818;52.156;5.382;2024-02-26T12:30:02;100471.53;;;6.29;100.00
26043;BME280;13818;52.156;5.382;2024-02-26T12:32:29;100451.44;;;6.24;100.00
26043;BME280;13818;52.156;5.382;2024-02-26T12:34:56;100484.94;;;6.25;100.00
26043;BME280;13818;52.156;5.382;2024-02-26T12:37:24;100471.56;;;6.28;100.00
26043;BME280;13818;52.156;5.382;2024-02-26T12:39:51;100444.59;;;6.18;100.00
26043;BME280;13818;52.156;5.382;2024-02-26T12:42:18;100484.88;;;6.26;100.00
26043;BME280;13818;52.156;5.382;2024-02-26T12:44:44;100465.44;;;6.27;100.00
26043;BME280;13818;52.156;5.382;2024-02-26T12:47:11;100471.44;;;6.32;100.00
26043;BME280;13818;52.156;5.382;2024-02-26T12:49:42;100488.66;;;6.19;100.00
26043;BME280;13818;52.156;5.382;2024-02-26T12:52:09;100511.50;;;6.22;100.00
26043;BME280;13818;52.156;5.382;2024-02-26T12:54:38;100478.72;;;6.26;100.00